sensor_id;sensor_type;location;lat;lon;timestamp;P1;durP1;ratioP1;P2;durP2;ratioP2
62535;SDS011;63050;47.514;18.920;2023-03-23T00:01:54;7.70;;;4.40;;
62535;SDS011;63050;47.514;18.920;2023-03-23T00:06:56;7.30;;;4.20;;
62535;SDS011;63050;47.514;18.920;2023-03-23T00:11:57;7.70;;;4.60;;
62535;SDS011;63050;47.514;18.920;2023-03-23T00:17:07;8.60;;;5.50;;
62535;SDS011;63050;47.514;18.920;2023-03-23T00:22:10;7.50;;;4.60;;
62535;SDS011;63050;47.514;18.920;2023-03-23T00:27:15;8.50;;;3.90;;
62535;SDS011;63050;47.514;18.920;2023-03-23T00:32:16;8.30;;;3.80;;
62535;SDS011;63050;47.514;18.920;2023-03-23T00:37:18;6.20;;;4.20;;
62535;SDS011;63050;47.514;18.920;2023-03-23T00:42:19;4.40;;;3.30;;
62535;SDS011;63050;47.514;18.920;2023-03-23T00:47:22;8.60;;;5.00;;
62535;SDS011;63050;47.514;18.920;2023-03-23T00:52:23;5.00;;;3.40;;
62535;SDS011;63050;47.514;18.920;2023-03-23T00:57:24;7.50;;;4.10;;
62535;SDS011;63050;47.514;18.920;2023-03-23T01:02:26;7.50;;;3.60;;
62535;SDS011;63050;47.514;18.920;2023-03-23T01:07:28;7.50;;;4.10;;
62535;SDS011;63050;47.514;18.920;2023-03-23T01:12:31;7.90;;;4.60;;
62535;SDS011;63050;47.514;18.920;2023-03-23T01:17:32;6.30;;;3.90;;
62535;SDS011;63050;47.514;18.920;2023-03-23T01:22:34;7.70;;;4.20;;
62535;SDS011;63050;47.514;18.920;2023-03-23T01:27:35;6.90;;;3.30;;
62535;SDS011;63050;47.514;18.920;2023-03-23T01:32:36;7.00;;;3.30;;
62535;SDS011;63050;47.514;18.920;2023-03-23T01:37:38;8.70;;;4.30;;
62535;SDS011;63050;47.514;18.920;2023-03-23T01:42:39;8.70;;;4.30;;
62535;SDS011;63050;47.514;18.920;2023-03-23T01:47:44;6.30;;;3.60;;
62535;SDS011;63050;47.514;18.920;2023-03-23T01:53:00;9.40;;;3.50;;
62535;SDS011;63050;47.514;18.920;2023-03-23T01:58:02;7.20;;;3.40;;
62535;SDS011;63050;47.514;18.920;2023-03-23T02:03:03;8.40;;;3.70;;
62535;SDS011;63050;47.514;18.920;2023-03-23T02:08:07;6.50;;;3.50;;
62535;SDS011;63050;47.514;18.920;2023-03-23T02:13:10;6.00;;;3.80;;
62535;SDS011;63050;47.514;18.920;2023-03-23T02:29:00;7.30;;;4.70;;
62535;SDS011;63050;47.514;18.920;2023-03-23T02:39:14;4.90;;;2.80;;
62535;SDS011;63050;47.514;18.920;2023-03-23T02:44:21;5.10;;;3.00;;
62535;SDS011;63050;47.514;18.920;2023-03-23T02:49:26;6.90;;;4.00;;
62535;SDS011;63050;47.514;18.920;2023-03-23T02:54:29;6.70;;;3.30;;
62535;SDS011;63050;47.514;18.920;2023-03-23T02:59:30;6.20;;;3.20;;
62535;SDS011;63050;47.514;18.920;2023-03-23T03:04:32;7.10;;;3.60;;
62535;SDS011;63050;47.514;18.920;2023-03-23T03:20:18;5.30;;;2.90;;
62535;SDS011;63050;47.514;18.920;2023-03-23T03:25:20;4.10;;;2.60;;
62535;SDS011;63050;47.514;18.920;2023-03-23T03:30:26;3.70;;;2.90;;
62535;SDS011;63050;47.514;18.920;2023-03-23T03:35:31;6.20;;;3.00;;
62535;SDS011;63050;47.514;18.920;2023-03-23T03:40:37;5.00;;;3.00;;
62535;SDS011;63050;47.514;18.920;2023-03-23T03:45:38;5.80;;;3.00;;
62535;SDS011;63050;47.514;18.920;2023-03-23T03:50:41;5.00;;;3.00;;
62535;SDS011;63050;47.514;18.920;2023-03-23T03:55:42;5.90;;;3.40;;
62535;SDS011;63050;47.514;18.920;2023-03-23T04:00:50;5.20;;;3.00;;
62535;SDS011;63050;47.514;18.920;2023-03-23T04:05:54;5.30;;;3.50;;
62535;SDS011;63050;47.514;18.920;2023-03-23T04:10:56;5.20;;;2.70;;
62535;SDS011;63050;47.514;18.920;2023-03-23T04:15:58;5.40;;;3.10;;
62535;SDS011;63050;47.514;18.920;2023-03-23T04:21:01;4.70;;;2.60;;
62535;SDS011;63050;47.514;18.920;2023-03-23T04:26:03;5.10;;;3.60;;
62535;SDS011;63050;47.514;18.920;2023-03-23T04:31:13;5.00;;;3.60;;
62535;SDS011;63050;47.514;18.920;2023-03-23T04:36:19;6.40;;;3.00;;
62535;SDS011;63050;47.514;18.920;2023-03-23T04:41:30;7.00;;;3.40;;
62535;SDS011;63050;47.514;18.920;2023-03-23T04:46:40;4.40;;;3.20;;
62535;SDS011;63050;47.514;18.920;2023-03-23T04:51:43;3.60;;;2.80;;
62535;SDS011;63050;47.514;18.920;2023-03-23T04:56:54;14.00;;;3.70;;
62535;SDS011;63050;47.514;18.920;2023-03-23T05:01:56;5.70;;;3.10;;
62535;SDS011;63050;47.514;18.920;2023-03-23T05:06:58;4.90;;;3.50;;
62535;SDS011;63050;47.514;18.920;2023-03-23T05:12:05;6.40;;;3.50;;
62535;SDS011;63050;47.514;18.920;2023-03-23T05:17:08;12.00;;;3.00;;
62535;SDS011;63050;47.514;18.920;2023-03-23T05:22:10;16.40;;;6.00;;
62535;SDS011;63050;47.514;18.920;2023-03-23T05:27:19;6.60;;;3.30;;
62535;SDS011;63050;47.514;18.920;2023-03-23T05:32:22;6.30;;;3.20;;
62535;SDS011;63050;47.514;18.920;2023-03-23T05:37:32;5.00;;;3.20;;
62535;SDS011;63050;47.514;18.920;2023-03-23T05:42:41;8.80;;;3.40;;
62535;SDS011;63050;47.514;18.920;2023-03-23T05:47:47;13.90;;;4.30;;
62535;SDS011;63050;47.514;18.920;2023-03-23T05:52:52;6.80;;;3.80;;
62535;SDS011;63050;47.514;18.920;2023-03-23T05:57:54;12.90;;;5.40;;
62535;SDS011;63050;47.514;18.920;2023-03-23T06:03:02;10.60;;;4.60;;
62535;SDS011;63050;47.514;18.920;2023-03-23T06:08:24;7.60;;;4.90;;
62535;SDS011;63050;47.514;18.920;2023-03-23T06:13:25;10.70;;;4.70;;
62535;SDS011;63050;47.514;18.920;2023-03-23T06:18:30;9.50;;;5.40;;
62535;SDS011;63050;47.514;18.920;2023-03-23T06:24:00;21.10;;;5.20;;
62535;SDS011;63050;47.514;18.920;2023-03-23T06:29:04;11.70;;;5.40;;
62535;SDS011;63050;47.514;18.920;2023-03-23T06:34:16;18.90;;;7.40;;
62535;SDS011;63050;47.514;18.920;2023-03-23T06:39:26;52.00;;;9.40;;
62535;SDS011;63050;47.514;18.920;2023-03-23T06:44:41;9.40;;;5.20;;
62535;SDS011;63050;47.514;18.920;2023-03-23T06:49:46;9.50;;;5.30;;
62535;SDS011;63050;47.514;18.920;2023-03-23T06:54:56;8.50;;;5.40;;
62535;SDS011;63050;47.514;18.920;2023-03-23T06:59:57;7.60;;;6.30;;
62535;SDS011;63050;47.514;18.920;2023-03-23T07:04:59;7.60;;;5.50;;
62535;SDS011;63050;47.514;18.920;2023-03-23T07:10:00;20.90;;;6.20;;
62535;SDS011;63050;47.514;18.920;2023-03-23T07:15:04;10.90;;;5.40;;
62535;SDS011;63050;47.514;18.920;2023-03-23T07:20:06;9.40;;;5.60;;
62535;SDS011;63050;47.514;18.920;2023-03-23T07:25:08;9.10;;;6.10;;
62535;SDS011;63050;47.514;18.920;2023-03-23T07:30:23;8.80;;;6.20;;
62535;SDS011;63050;47.514;18.920;2023-03-23T07:35:24;10.80;;;6.30;;
62535;SDS011;63050;47.514;18.920;2023-03-23T07:40:41;7.70;;;6.00;;
62535;SDS011;63050;47.514;18.920;2023-03-23T07:45:47;20.70;;;6.60;;
62535;SDS011;63050;47.514;18.920;2023-03-23T07:50:49;13.40;;;5.90;;
62535;SDS011;63050;47.514;18.920;2023-03-23T07:55:50;6.90;;;5.90;;
62535;SDS011;63050;47.514;18.920;2023-03-23T08:01:10;7.60;;;6.30;;
62535;SDS011;63050;47.514;18.920;2023-03-23T08:06:12;8.90;;;6.50;;
62535;SDS011;63050;47.514;18.920;2023-03-23T08:11:48;6.70;;;5.50;;
62535;SDS011;63050;47.514;18.920;2023-03-23T08:17:09;8.60;;;5.80;;
62535;SDS011;63050;47.514;18.920;2023-03-23T08:22:29;11.50;;;5.20;;
62535;SDS011;63050;47.514;18.920;2023-03-23T08:27:49;6.70;;;5.10;;
62535;SDS011;63050;47.514;18.920;2023-03-23T08:33:08;10.00;;;5.10;;
62535;SDS011;63050;47.514;18.920;2023-03-23T08:38:37;8.90;;;4.70;;
62535;SDS011;63050;47.514;18.920;2023-03-23T08:43:41;6.10;;;4.70;;
62535;SDS011;63050;47.514;18.920;2023-03-23T08:49:08;8.00;;;4.30;;
62535;SDS011;63050;47.514;18.920;2023-03-23T08:54:36;10.00;;;6.20;;
62535;SDS011;63050;47.514;18.920;2023-03-23T08:59:59;9.30;;;5.30;;
62535;SDS011;63050;47.514;18.920;2023-03-23T09:05:29;8.70;;;4.80;;
62535;SDS011;63050;47.514;18.920;2023-03-23T09:10:41;8.90;;;5.80;;
62535;SDS011;63050;47.514;18.920;2023-03-23T09:15:45;9.40;;;4.30;;
62535;SDS011;63050;47.514;18.920;2023-03-23T09:20:46;9.50;;;4.30;;
62535;SDS011;63050;47.514;18.920;2023-03-23T09:25:50;6.20;;;4.10;;
62535;SDS011;63050;47.514;18.920;2023-03-23T09:30:54;6.40;;;4.80;;
62535;SDS011;63050;47.514;18.920;2023-03-23T09:36:01;6.20;;;4.80;;
62535;SDS011;63050;47.514;18.920;2023-03-23T09:46:42;12.40;;;7.00;;
62535;SDS011;63050;47.514;18.920;2023-03-23T09:51:49;9.10;;;6.30;;
62535;SDS011;63050;47.514;18.920;2023-03-23T09:56:54;7.90;;;6.30;;
62535;SDS011;63050;47.514;18.920;2023-03-23T10:02:10;8.40;;;5.20;;
62535;SDS011;63050;47.514;18.920;2023-03-23T10:07:19;9.00;;;6.80;;
62535;SDS011;63050;47.514;18.920;2023-03-23T10:12:27;6.80;;;5.20;;
62535;SDS011;63050;47.514;18.920;2023-03-23T10:17:34;8.20;;;6.40;;
62535;SDS011;63050;47.514;18.920;2023-03-23T10:23:09;12.70;;;7.10;;
62535;SDS011;63050;47.514;18.920;2023-03-23T10:28:35;8.70;;;6.20;;
62535;SDS011;63050;47.514;18.920;2023-03-23T10:33:45;10.90;;;6.50;;
62535;SDS011;63050;47.514;18.920;2023-03-23T10:38:49;9.20;;;6.70;;
62535;SDS011;63050;47.514;18.920;2023-03-23T10:43:56;11.70;;;6.00;;
62535;SDS011;63050;47.514;18.920;2023-03-23T10:48:58;10.80;;;5.90;;
62535;SDS011;63050;47.514;18.920;2023-03-23T10:54:02;8.70;;;7.10;;
62535;SDS011;63050;47.514;18.920;2023-03-23T10:59:15;11.30;;;7.00;;
62535;SDS011;63050;47.514;18.920;2023-03-23T11:04:21;14.00;;;6.40;;
62535;SDS011;63050;47.514;18.920;2023-03-23T11:09:33;5.40;;;2.90;;
62535;SDS011;63050;47.514;18.920;2023-03-23T11:14:36;3.60;;;2.40;;
62535;SDS011;63050;47.514;18.920;2023-03-23T11:19:39;5.70;;;2.50;;
62535;SDS011;63050;47.514;18.920;2023-03-23T11:24:41;4.50;;;2.30;;
62535;SDS011;63050;47.514;18.920;2023-03-23T11:29:52;6.70;;;2.30;;
62535;SDS011;63050;47.514;18.920;2023-03-23T11:34:57;6.10;;;2.30;;
62535;SDS011;63050;47.514;18.920;2023-03-23T11:40:02;15.60;;;3.80;;
62535;SDS011;63050;47.514;18.920;2023-03-23T11:45:24;3.50;;;1.90;;
62535;SDS011;63050;47.514;18.920;2023-03-23T12:22:11;2.70;;;1.90;;
62535;SDS011;63050;47.514;18.920;2023-03-23T12:27:28;4.10;;;1.90;;
62535;SDS011;63050;47.514;18.920;2023-03-23T12:48:50;3.20;;;1.80;;
62535;SDS011;63050;47.514;18.920;2023-03-23T13:04:37;3.50;;;1.80;;
62535;SDS011;63050;47.514;18.920;2023-03-23T13:30:54;5.60;;;1.60;;
62535;SDS011;63050;47.514;18.920;2023-03-23T13:36:04;3.10;;;1.80;;
62535;SDS011;63050;47.514;18.920;2023-03-23T13:41:13;4.60;;;1.80;;
62535;SDS011;63050;47.514;18.920;2023-03-23T13:51:27;7.00;;;2.30;;
62535;SDS011;63050;47.514;18.920;2023-03-23T13:56:36;3.50;;;2.00;;
62535;SDS011;63050;47.514;18.920;2023-03-23T14:01:40;5.30;;;1.80;;
62535;SDS011;63050;47.514;18.920;2023-03-23T14:06:42;5.40;;;2.00;;
62535;SDS011;63050;47.514;18.920;2023-03-23T14:17:13;3.10;;;1.80;;
62535;SDS011;63050;47.514;18.920;2023-03-23T14:27:26;3.50;;;2.20;;
62535;SDS011;63050;47.514;18.920;2023-03-23T14:32:29;4.00;;;2.20;;
62535;SDS011;63050;47.514;18.920;2023-03-23T14:37:32;10.70;;;2.70;;
62535;SDS011;63050;47.514;18.920;2023-03-23T14:42:34;3.00;;;1.90;;
62535;SDS011;63050;47.514;18.920;2023-03-23T14:47:40;7.40;;;2.30;;
62535;SDS011;63050;47.514;18.920;2023-03-23T14:52:44;14.40;;;3.50;;
62535;SDS011;63050;47.514;18.920;2023-03-23T14:57:49;4.10;;;2.10;;
62535;SDS011;63050;47.514;18.920;2023-03-23T15:02:51;4.90;;;2.90;;
62535;SDS011;63050;47.514;18.920;2023-03-23T15:07:55;8.90;;;2.40;;
62535;SDS011;63050;47.514;18.920;2023-03-23T15:12:57;6.30;;;2.10;;
62535;SDS011;63050;47.514;18.920;2023-03-23T15:17:58;4.30;;;2.90;;
62535;SDS011;63050;47.514;18.920;2023-03-23T15:23:07;2.90;;;2.00;;
62535;SDS011;63050;47.514;18.920;2023-03-23T15:28:18;14.90;;;3.40;;
62535;SDS011;63050;47.514;18.920;2023-03-23T15:33:22;6.50;;;2.30;;
62535;SDS011;63050;47.514;18.920;2023-03-23T15:38:31;16.00;;;2.50;;
62535;SDS011;63050;47.514;18.920;2023-03-23T15:43:34;4.30;;;2.10;;
62535;SDS011;63050;47.514;18.920;2023-03-23T15:54:00;4.80;;;2.40;;
62535;SDS011;63050;47.514;18.920;2023-03-23T15:59:02;5.20;;;2.30;;
62535;SDS011;63050;47.514;18.920;2023-03-23T16:04:07;13.30;;;2.70;;
62535;SDS011;63050;47.514;18.920;2023-03-23T16:09:14;9.90;;;2.40;;
62535;SDS011;63050;47.514;18.920;2023-03-23T16:14:17;11.20;;;2.90;;
62535;SDS011;63050;47.514;18.920;2023-03-23T16:19:18;3.70;;;2.80;;
62535;SDS011;63050;47.514;18.920;2023-03-23T16:24:23;10.30;;;3.50;;
62535;SDS011;63050;47.514;18.920;2023-03-23T16:29:24;9.40;;;4.50;;
62535;SDS011;63050;47.514;18.920;2023-03-23T16:34:25;15.30;;;4.50;;
62535;SDS011;63050;47.514;18.920;2023-03-23T16:39:29;8.00;;;4.20;;
62535;SDS011;63050;47.514;18.920;2023-03-23T16:44:30;13.30;;;5.60;;
62535;SDS011;63050;47.514;18.920;2023-03-23T16:49:31;20.80;;;6.00;;
62535;SDS011;63050;47.514;18.920;2023-03-23T16:54:33;12.10;;;5.00;;
62535;SDS011;63050;47.514;18.920;2023-03-23T16:59:34;39.40;;;8.10;;
62535;SDS011;63050;47.514;18.920;2023-03-23T17:04:35;25.90;;;5.40;;
62535;SDS011;63050;47.514;18.920;2023-03-23T17:09:39;46.80;;;7.80;;
62535;SDS011;63050;47.514;18.920;2023-03-23T17:14:41;27.20;;;6.00;;
62535;SDS011;63050;47.514;18.920;2023-03-23T17:19:42;31.50;;;7.10;;
62535;SDS011;63050;47.514;18.920;2023-03-23T17:24:46;27.10;;;6.70;;
62535;SDS011;63050;47.514;18.920;2023-03-23T17:29:47;28.90;;;6.80;;
62535;SDS011;63050;47.514;18.920;2023-03-23T17:34:51;123.20;;;13.70;;
62535;SDS011;63050;47.514;18.920;2023-03-23T17:39:52;49.20;;;7.30;;
62535;SDS011;63050;47.514;18.920;2023-03-23T17:44:55;33.00;;;6.20;;
62535;SDS011;63050;47.514;18.920;2023-03-23T17:49:56;11.90;;;4.50;;
62535;SDS011;63050;47.514;18.920;2023-03-23T17:54:57;22.30;;;5.30;;
62535;SDS011;63050;47.514;18.920;2023-03-23T17:59:59;10.60;;;4.60;;
62535;SDS011;63050;47.514;18.920;2023-03-23T18:05:00;12.60;;;4.70;;
62535;SDS011;63050;47.514;18.920;2023-03-23T18:10:02;14.40;;;4.80;;
62535;SDS011;63050;47.514;18.920;2023-03-23T18:15:11;71.10;;;8.00;;
62535;SDS011;63050;47.514;18.920;2023-03-23T18:20:13;38.00;;;6.40;;
62535;SDS011;63050;47.514;18.920;2023-03-23T18:25:14;16.00;;;4.40;;
62535;SDS011;63050;47.514;18.920;2023-03-23T18:30:16;13.30;;;4.20;;
62535;SDS011;63050;47.514;18.920;2023-03-23T18:35:18;13.80;;;7.50;;
62535;SDS011;63050;47.514;18.920;2023-03-23T18:40:20;22.00;;;7.20;;
62535;SDS011;63050;47.514;18.920;2023-03-23T18:45:21;21.50;;;7.60;;
62535;SDS011;63050;47.514;18.920;2023-03-23T18:50:23;51.30;;;9.10;;
62535;SDS011;63050;47.514;18.920;2023-03-23T18:55:25;36.40;;;8.70;;
62535;SDS011;63050;47.514;18.920;2023-03-23T19:00:28;33.40;;;8.10;;
62535;SDS011;63050;47.514;18.920;2023-03-23T19:05:31;21.50;;;7.00;;
62535;SDS011;63050;47.514;18.920;2023-03-23T19:10:38;41.00;;;7.90;;
62535;SDS011;63050;47.514;18.920;2023-03-23T19:15:43;37.20;;;6.90;;
62535;SDS011;63050;47.514;18.920;2023-03-23T19:20:45;52.10;;;9.40;;
62535;SDS011;63050;47.514;18.920;2023-03-23T19:25:49;43.10;;;9.70;;
62535;SDS011;63050;47.514;18.920;2023-03-23T19:35:57;18.80;;;6.30;;
62535;SDS011;63050;47.514;18.920;2023-03-23T19:40:59;19.40;;;5.50;;
62535;SDS011;63050;47.514;18.920;2023-03-23T19:46:01;27.70;;;6.70;;
62535;SDS011;63050;47.514;18.920;2023-03-23T19:51:04;54.80;;;10.40;;
62535;SDS011;63050;47.514;18.920;2023-03-23T19:56:11;46.30;;;12.70;;
62535;SDS011;63050;47.514;18.920;2023-03-23T20:01:15;51.60;;;21.00;;
62535;SDS011;63050;47.514;18.920;2023-03-23T20:06:18;55.60;;;24.50;;
62535;SDS011;63050;47.514;18.920;2023-03-23T20:11:20;36.80;;;16.50;;
62535;SDS011;63050;47.514;18.920;2023-03-23T20:16:22;28.80;;;13.20;;
62535;SDS011;63050;47.514;18.920;2023-03-23T20:21:26;31.30;;;13.40;;
62535;SDS011;63050;47.514;18.920;2023-03-23T20:26:30;20.50;;;11.50;;
62535;SDS011;63050;47.514;18.920;2023-03-23T20:31:36;20.40;;;9.90;;
62535;SDS011;63050;47.514;18.920;2023-03-23T20:36:41;29.50;;;8.80;;
62535;SDS011;63050;47.514;18.920;2023-03-23T20:41:51;14.20;;;7.70;;
62535;SDS011;63050;47.514;18.920;2023-03-23T20:46:58;13.70;;;6.20;;
62535;SDS011;63050;47.514;18.920;2023-03-23T20:52:05;13.40;;;6.50;;
62535;SDS011;63050;47.514;18.920;2023-03-23T21:02:11;12.20;;;7.80;;
62535;SDS011;63050;47.514;18.920;2023-03-23T21:07:15;18.30;;;7.90;;
62535;SDS011;63050;47.514;18.920;2023-03-23T21:12:17;13.60;;;8.10;;
62535;SDS011;63050;47.514;18.920;2023-03-23T21:17:20;12.20;;;8.00;;
62535;SDS011;63050;47.514;18.920;2023-03-23T21:22:21;17.50;;;8.00;;
62535;SDS011;63050;47.514;18.920;2023-03-23T21:27:22;14.60;;;8.40;;
62535;SDS011;63050;47.514;18.920;2023-03-23T21:32:24;11.60;;;7.20;;
62535;SDS011;63050;47.514;18.920;2023-03-23T21:37:25;10.90;;;7.70;;
62535;SDS011;63050;47.514;18.920;2023-03-23T21:42:28;12.50;;;7.40;;
62535;SDS011;63050;47.514;18.920;2023-03-23T21:47:29;12.20;;;6.70;;
62535;SDS011;63050;47.514;18.920;2023-03-23T21:52:31;12.10;;;7.40;;
62535;SDS011;63050;47.514;18.920;2023-03-23T21:57:33;13.90;;;7.90;;
62535;SDS011;63050;47.514;18.920;2023-03-23T22:02:34;12.60;;;8.30;;
62535;SDS011;63050;47.514;18.920;2023-03-23T22:07:35;16.10;;;7.50;;
62535;SDS011;63050;47.514;18.920;2023-03-23T22:12:39;12.50;;;8.70;;
62535;SDS011;63050;47.514;18.920;2023-03-23T22:17:40;10.90;;;8.10;;
62535;SDS011;63050;47.514;18.920;2023-03-23T22:22:41;17.10;;;12.20;;
62535;SDS011;63050;47.514;18.920;2023-03-23T22:27:42;16.20;;;11.60;;
62535;SDS011;63050;47.514;18.920;2023-03-23T22:32:44;33.90;;;11.70;;
62535;SDS011;63050;47.514;18.920;2023-03-23T22:37:45;28.60;;;13.30;;
62535;SDS011;63050;47.514;18.920;2023-03-23T22:42:46;30.30;;;11.60;;
62535;SDS011;63050;47.514;18.920;2023-03-23T22:47:47;24.90;;;12.50;;
62535;SDS011;63050;47.514;18.920;2023-03-23T22:52:48;20.70;;;11.60;;
62535;SDS011;63050;47.514;18.920;2023-03-23T22:57:49;18.60;;;12.60;;
62535;SDS011;63050;47.514;18.920;2023-03-23T23:02:50;18.50;;;11.80;;
62535;SDS011;63050;47.514;18.920;2023-03-23T23:07:51;13.10;;;11.00;;
62535;SDS011;63050;47.514;18.920;2023-03-23T23:12:53;12.40;;;9.50;;
62535;SDS011;63050;47.514;18.920;2023-03-23T23:17:54;13.60;;;9.20;;
62535;SDS011;63050;47.514;18.920;2023-03-23T23:22:55;14.70;;;8.90;;
62535;SDS011;63050;47.514;18.920;2023-03-23T23:27:57;14.90;;;10.30;;
62535;SDS011;63050;47.514;18.920;2023-03-23T23:32:59;10.80;;;9.00;;
62535;SDS011;63050;47.514;18.920;2023-03-23T23:38:01;10.80;;;9.40;;
62535;SDS011;63050;47.514;18.920;2023-03-23T23:43:06;11.00;;;8.80;;
62535;SDS011;63050;47.514;18.920;2023-03-23T23:48:07;12.90;;;8.60;;
62535;SDS011;63050;47.514;18.920;2023-03-23T23:53:08;15.30;;;9.90;;
62535;SDS011;63050;47.514;18.920;2023-03-23T23:58:10;17.80;;;10.20;;
